createdAt,value
2023-02-21T00:00:15.025Z,3.65
2023-02-21T00:03:02.545Z,2.88
2023-02-21T00:05:50.394Z,3.50
2023-02-21T00:08:38.189Z,2.85
2023-02-21T00:11:25.984Z,2.60
2023-02-21T00:14:14.075Z,2.63
2023-02-21T00:17:01.792Z,2.60
2023-02-21T00:19:49.515Z,2.92
2023-02-21T00:22:37.233Z,2.38
2023-02-21T00:25:25.315Z,2.40
2023-02-21T00:28:13.342Z,2.58
2023-02-21T00:31:01.029Z,3.10
2023-02-21T00:33:48.832Z,2.97
2023-02-21T00:36:37.568Z,2.85
2023-02-21T00:39:25.362Z,3.00
2023-02-21T00:42:13.098Z,2.65
2023-02-21T00:45:01.043Z,2.83
2023-02-21T00:47:48.848Z,2.88
2023-02-21T00:50:36.595Z,3.25
2023-02-21T00:53:24.301Z,2.97
2023-02-21T00:56:11.844Z,3.22
2023-02-21T00:58:59.493Z,3.22
2023-02-21T01:01:47.314Z,2.67
2023-02-21T01:04:35.016Z,2.75
2023-02-21T01:07:22.698Z,2.80
2023-02-21T01:10:10.512Z,2.90
2023-02-21T01:12:58.126Z,2.92
2023-02-21T01:15:45.841Z,2.97
2023-02-21T01:18:33.834Z,2.92
2023-02-21T01:21:21.640Z,2.72
2023-02-21T01:24:09.665Z,2.80
2023-02-21T01:26:57.334Z,2.95
2023-02-21T01:29:45.506Z,2.63
2023-02-21T01:32:33.292Z,3.10
2023-02-21T01:35:21.043Z,3.05
2023-02-21T01:38:08.831Z,2.83
2023-02-21T01:40:59.120Z,2.90
2023-02-21T01:43:47.503Z,3.08
2023-02-21T01:46:40.200Z,3.20
2023-02-21T01:49:32.208Z,3.10
2023-02-21T01:52:20.170Z,2.63
2023-02-21T01:55:09.834Z,2.53
2023-02-21T01:57:57.631Z,2.63
2023-02-21T02:00:45.603Z,2.83
2023-02-21T02:03:35.949Z,3.22
2023-02-21T02:06:29.711Z,3.30
2023-02-21T02:09:17.668Z,3.20
2023-02-21T02:12:25.159Z,2.92
2023-02-21T02:15:00.764Z,2.60
2023-02-21T02:18:21.069Z,3.28
2023-02-21T02:21:02.946Z,2.90
2023-02-21T02:23:57.112Z,3.40
2023-02-21T02:26:42.930Z,3.75
2023-02-21T02:29:40.153Z,2.85
2023-02-21T02:32:45.063Z,2.85
2023-02-21T02:35:30.381Z,3.08
2023-02-21T02:38:15.586Z,2.95
2023-02-21T02:41:27.014Z,2.63
2023-02-21T02:44:08.369Z,2.70
2023-02-21T02:46:41.353Z,3.05
2023-02-21T02:49:21.506Z,3.35
2023-02-21T02:51:51.718Z,2.40
2023-02-21T02:54:21.609Z,2.38
2023-02-21T02:56:51.421Z,3.50
2023-02-21T02:59:23.765Z,2.95
2023-02-21T03:02:03.239Z,2.70
2023-02-21T03:05:10.753Z,3.00
2023-02-21T03:08:21.456Z,2.90
2023-02-21T03:11:09.275Z,2.10
2023-02-21T03:16:36.159Z,3.20
2023-02-21T03:19:11.621Z,2.63
2023-02-21T03:21:44.977Z,3.08
2023-02-21T03:24:15.720Z,3.33
2023-02-21T03:26:46.843Z,3.10
2023-02-21T03:29:17.857Z,3.83
2023-02-21T03:31:50.204Z,3.28
2023-02-21T03:34:20.059Z,2.90
2023-02-21T03:36:50.037Z,2.70
2023-02-21T03:39:21.042Z,2.65
2023-02-21T03:41:50.976Z,3.33
2023-02-21T03:44:20.973Z,3.58
2023-02-21T03:46:51.531Z,3.95
2023-02-21T03:49:21.510Z,3.35
2023-02-21T03:51:51.471Z,3.63
2023-02-21T03:54:21.528Z,3.25
2023-02-21T03:56:51.473Z,3.60
2023-02-21T03:59:21.551Z,3.28
2023-02-21T04:01:51.626Z,3.22
2023-02-21T04:04:21.426Z,2.90
2023-02-21T04:06:51.996Z,2.90
2023-02-21T04:09:21.900Z,3.17
2023-02-21T04:11:51.936Z,3.65
2023-02-21T04:14:22.257Z,2.72
2023-02-21T04:16:52.154Z,2.97
2023-02-21T04:19:22.017Z,3.72
2023-02-21T04:21:51.833Z,4.25
2023-02-21T04:24:21.605Z,3.90
2023-02-21T04:26:51.480Z,3.03
2023-02-21T04:29:21.324Z,4.80
2023-02-21T04:31:51.042Z,3.17
2023-02-21T04:34:20.856Z,2.80
2023-02-21T04:36:50.664Z,3.58
2023-02-21T04:39:20.407Z,3.22
2023-02-21T04:41:50.639Z,3.38
2023-02-21T04:44:20.250Z,3.60
2023-02-21T04:46:49.921Z,4.18
2023-02-21T04:49:20.538Z,3.35
2023-02-21T04:51:50.172Z,3.20
2023-02-21T04:54:19.884Z,3.38
2023-02-21T04:56:49.632Z,3.25
2023-02-21T04:59:19.368Z,3.35
2023-02-21T05:01:49.362Z,4.15
2023-02-21T05:04:19.115Z,4.20
2023-02-21T05:06:48.956Z,4.60
2023-02-21T05:09:18.739Z,3.88
2023-02-21T05:11:48.568Z,3.90
2023-02-21T05:14:19.911Z,4.10
2023-02-21T05:16:49.624Z,4.03
2023-02-21T05:19:33.886Z,4.30
2023-02-21T05:22:04.464Z,4.18
2023-02-21T05:24:34.206Z,3.90
2023-02-21T05:27:04.045Z,3.85
2023-02-21T05:29:33.857Z,4.32
2023-02-21T05:32:03.888Z,4.38
2023-02-21T05:34:33.641Z,4.43
2023-02-21T05:37:03.310Z,3.60
2023-02-21T05:39:33.188Z,3.90
2023-02-21T05:42:03.136Z,5.18
2023-02-21T05:44:32.962Z,3.72
2023-02-21T05:47:04.067Z,4.13
2023-02-21T05:49:33.766Z,4.40
2023-02-21T05:52:03.481Z,4.70
2023-02-21T05:54:33.429Z,5.13
2023-02-21T05:57:03.535Z,5.65
2023-02-21T05:59:33.340Z,6.00
2023-02-21T06:02:03.081Z,5.35
2023-02-21T06:04:32.690Z,4.40
2023-02-21T06:07:02.300Z,3.80
2023-02-21T06:09:32.647Z,3.95
2023-02-21T06:12:02.261Z,4.45
2023-02-21T06:14:31.865Z,4.10
2023-02-21T06:17:02.320Z,3.88
2023-02-21T06:19:33.371Z,4.20
2023-02-21T06:22:03.186Z,3.90
2023-02-21T06:24:32.951Z,3.88
2023-02-21T06:27:02.704Z,3.53
2023-02-21T06:29:32.317Z,3.50
2023-02-21T06:32:02.262Z,4.00
2023-02-21T06:34:31.875Z,3.85
2023-02-21T06:37:01.529Z,4.55
2023-02-21T06:39:31.111Z,3.80
2023-02-21T06:42:01.531Z,5.00
2023-02-21T06:44:31.205Z,3.38
2023-02-21T06:47:00.787Z,3.92
2023-02-21T06:49:30.358Z,3.92
2023-02-21T06:51:59.956Z,4.35
2023-02-21T06:54:31.520Z,3.78
2023-02-21T06:57:03.176Z,3.30
2023-02-21T06:59:32.896Z,4.18
2023-02-21T07:02:02.537Z,5.80
2023-02-21T07:04:32.289Z,12.20
2023-02-21T07:07:02.039Z,9.23
2023-02-21T07:09:31.628Z,8.02
2023-02-21T07:12:01.266Z,9.40
2023-02-21T07:14:30.880Z,7.97
2023-02-21T07:17:00.636Z,8.52
2023-02-21T07:19:30.285Z,9.55
2023-02-21T07:21:59.881Z,8.45
2023-02-21T07:24:29.498Z,9.13
2023-02-21T07:26:59.055Z,9.30
2023-02-21T07:29:28.715Z,8.98
2023-02-21T07:31:59.647Z,8.35
2023-02-21T07:34:29.461Z,9.13
2023-02-21T07:36:59.111Z,8.07
2023-02-21T07:39:28.846Z,8.23
2023-02-21T07:41:58.456Z,9.32
2023-02-21T07:44:28.022Z,8.35
2023-02-21T07:46:59.050Z,8.60
2023-02-21T07:49:28.715Z,8.93
2023-02-21T07:51:58.298Z,9.10
2023-02-21T07:54:27.886Z,9.25
2023-02-21T07:56:57.517Z,7.63
2023-02-21T07:59:27.362Z,7.80
2023-02-21T08:01:57.288Z,9.38
2023-02-21T08:04:27.248Z,8.98
2023-02-21T08:07:01.938Z,7.63
2023-02-21T08:09:31.573Z,8.82
2023-02-21T08:12:01.162Z,9.20
2023-02-21T08:14:30.737Z,9.18
2023-02-21T08:17:00.322Z,9.07
2023-02-21T08:19:30.014Z,9.45
2023-02-21T08:21:59.831Z,9.50
2023-02-21T08:24:29.439Z,8.88
2023-02-21T08:26:59.198Z,10.02
2023-02-21T08:29:30.033Z,9.15
2023-02-21T08:31:59.673Z,10.23
2023-02-21T08:34:30.989Z,10.55
2023-02-21T08:37:00.565Z,9.40
2023-02-21T08:39:33.491Z,9.82
2023-02-21T08:42:03.052Z,9.30
2023-02-21T08:44:32.607Z,9.65
2023-02-21T08:47:02.268Z,10.00
2023-02-21T08:49:32.028Z,10.65
2023-02-21T08:52:01.671Z,11.40
2023-02-21T08:54:31.301Z,10.40
2023-02-21T08:57:01.009Z,9.80
2023-02-21T08:59:34.894Z,9.85
2023-02-21T09:02:04.682Z,9.90
2023-02-21T09:04:34.340Z,10.70
2023-02-21T09:07:03.973Z,10.38
2023-02-21T09:09:34.789Z,10.18
2023-02-21T09:12:04.933Z,9.52
2023-02-21T09:14:34.582Z,11.32
2023-02-21T09:17:04.620Z,10.05
2023-02-21T09:19:34.323Z,11.23
2023-02-21T09:22:05.868Z,11.05
2023-02-21T09:24:35.512Z,10.90
2023-02-21T09:27:05.319Z,10.43
2023-02-21T09:29:46.026Z,10.18
2023-02-21T09:32:16.317Z,10.65
2023-02-21T09:34:46.750Z,11.05
2023-02-21T09:37:16.329Z,10.05
2023-02-21T09:39:45.961Z,10.73
2023-02-21T09:42:26.587Z,10.63
2023-02-21T09:44:56.210Z,9.65
2023-02-21T09:47:38.326Z,9.40
2023-02-21T09:50:12.948Z,10.55
2023-02-21T09:52:42.886Z,10.20
2023-02-21T09:55:30.828Z,11.88
2023-02-21T09:58:00.823Z,10.13
2023-02-21T10:00:39.849Z,10.48
2023-02-21T10:03:35.532Z,10.63
2023-02-21T10:06:33.617Z,11.18
2023-02-21T10:09:17.118Z,11.88
2023-02-21T10:12:19.336Z,11.77
2023-02-21T10:15:13.332Z,10.73
2023-02-21T10:17:53.680Z,9.73
2023-02-21T10:20:49.984Z,11.60
2023-02-21T10:23:44.673Z,10.68
2023-02-21T10:28:44.206Z,11.57
2023-02-21T10:31:33.692Z,11.15
2023-02-21T10:34:04.148Z,10.52
2023-02-21T10:36:33.798Z,11.10
2023-02-21T10:39:14.294Z,10.57
2023-02-21T10:41:43.967Z,11.30
2023-02-21T10:44:15.680Z,11.13
2023-02-21T10:47:13.284Z,11.20
2023-02-21T10:50:06.520Z,10.15
2023-02-21T10:52:52.711Z,10.27
2023-02-21T10:55:32.612Z,11.68
2023-02-21T10:58:12.559Z,11.55
2023-02-21T11:00:49.291Z,10.80
2023-02-21T11:03:24.891Z,11.77
2023-02-21T11:05:55.322Z,11.75
2023-02-21T11:08:57.096Z,11.25
2023-02-21T11:11:39.578Z,11.27
2023-02-21T11:14:29.245Z,10.63
2023-02-21T11:17:20.275Z,11.82
2023-02-21T11:19:57.610Z,10.73
2023-02-21T11:22:36.166Z,11.52
2023-02-21T11:25:15.166Z,11.75
2023-02-21T11:27:46.334Z,11.93
2023-02-21T11:30:22.051Z,10.93
2023-02-21T11:32:57.134Z,10.80
2023-02-21T11:35:36.028Z,9.48
2023-02-21T11:38:08.006Z,10.00
2023-02-21T11:40:49.886Z,11.65
2023-02-21T11:43:32.555Z,10.65
2023-02-21T11:46:11.541Z,9.93
2023-02-21T11:49:02.310Z,10.90
2023-02-21T11:51:54.987Z,10.38
2023-02-21T11:54:28.196Z,10.73
2023-02-21T11:57:02.438Z,9.50
2023-02-21T12:02:16.352Z,11.10
2023-02-21T12:04:58.151Z,11.02
2023-02-21T12:07:52.250Z,11.48
2023-02-21T12:10:30.777Z,11.17
2023-02-21T12:13:09.487Z,10.45
2023-02-21T12:15:48.564Z,10.70
2023-02-21T12:18:36.279Z,10.90
2023-02-21T12:21:21.097Z,10.82
2023-02-21T12:23:54.954Z,9.75
2023-02-21T12:27:02.255Z,10.48
2023-02-21T12:29:48.433Z,10.50
2023-02-21T12:32:42.401Z,10.77
2023-02-21T12:35:36.261Z,11.43
2023-02-21T12:38:29.292Z,10.27
2023-02-21T12:41:17.269Z,10.38
2023-02-21T12:43:53.561Z,10.68
2023-02-21T12:47:01.381Z,11.15
2023-02-21T12:49:57.485Z,11.52
2023-02-21T12:52:32.444Z,10.93
2023-02-21T12:55:06.424Z,11.02
2023-02-21T12:57:54.058Z,10.70
2023-02-21T13:00:28.631Z,11.63
2023-02-21T13:03:35.995Z,11.88
2023-02-21T13:06:05.541Z,10.57
2023-02-21T13:08:38.236Z,10.73
2023-02-21T13:11:31.628Z,9.48
2023-02-21T13:14:01.630Z,11.30
2023-02-21T13:16:31.378Z,10.88
2023-02-21T13:19:05.781Z,11.48
2023-02-21T13:21:50.891Z,11.52
2023-02-21T13:24:47.611Z,10.35
2023-02-21T13:27:35.806Z,10.90
2023-02-21T13:30:34.777Z,10.75
2023-02-21T13:33:04.466Z,11.50
2023-02-21T13:35:40.014Z,11.15
2023-02-21T13:38:12.083Z,10.77
2023-02-21T13:40:55.382Z,10.50
2023-02-21T13:43:33.282Z,11.15
2023-02-21T13:46:27.333Z,10.80
2023-02-21T13:49:33.645Z,12.07
2023-02-21T13:52:26.642Z,10.75
2023-02-21T13:55:17.682Z,10.98
2023-02-21T13:57:50.937Z,10.57
2023-02-21T14:00:29.505Z,10.40
2023-02-21T14:03:21.090Z,10.75
2023-02-21T14:05:53.832Z,10.50
2023-02-21T14:08:39.673Z,11.88
2023-02-21T14:11:09.263Z,11.32
2023-02-21T14:13:44.865Z,12.10
2023-02-21T14:16:17.423Z,12.00
2023-02-21T14:19:07.221Z,11.75
2023-02-21T14:21:45.660Z,10.27
2023-02-21T14:24:25.085Z,11.13
2023-02-21T14:26:54.643Z,10.98
2023-02-21T14:29:34.810Z,11.13
2023-02-21T14:32:05.155Z,11.23
2023-02-21T14:34:50.113Z,11.52
2023-02-21T14:37:22.417Z,10.30
2023-02-21T14:39:56.547Z,11.18
2023-02-21T14:42:32.129Z,11.23
2023-02-21T14:45:20.465Z,11.95
2023-02-21T14:48:11.868Z,11.75
2023-02-21T14:51:08.164Z,11.18
2023-02-21T14:53:50.320Z,12.07
2023-02-21T14:56:56.745Z,11.50
2023-02-21T14:59:53.749Z,10.68
2023-02-21T15:02:36.384Z,11.77
2023-02-21T15:05:42.660Z,11.40
2023-02-21T15:08:28.078Z,10.93
2023-02-21T15:11:07.280Z,12.30
2023-02-21T15:13:37.961Z,10.88
2023-02-21T15:16:09.654Z,10.85
2023-02-21T15:18:40.726Z,11.15
2023-02-21T15:21:17.578Z,12.02
2023-02-21T15:23:48.650Z,11.02
2023-02-21T15:26:24.181Z,11.52
2023-02-21T15:29:15.659Z,12.45
2023-02-21T15:31:53.694Z,11.27
2023-02-21T15:34:29.275Z,11.50
2023-02-21T15:37:31.983Z,11.90
2023-02-21T15:40:03.682Z,11.10
2023-02-21T15:42:33.529Z,11.43
2023-02-21T15:45:05.593Z,11.20
2023-02-21T15:47:36.042Z,10.88
2023-02-21T15:50:14.553Z,11.82
2023-02-21T15:52:53.187Z,12.07
2023-02-21T15:55:25.266Z,11.93
2023-02-21T15:58:09.884Z,11.60
2023-02-21T16:03:34.810Z,11.32
2023-02-21T16:06:26.665Z,11.18
2023-02-21T16:09:17.619Z,11.85
2023-02-21T16:12:00.967Z,11.38
2023-02-21T16:15:03.225Z,11.15
2023-02-21T16:17:36.315Z,12.38
2023-02-21T16:20:15.071Z,12.43
2023-02-21T16:25:38.972Z,11.73
2023-02-21T16:28:12.839Z,12.88
2023-02-21T16:30:42.520Z,11.18
2023-02-21T16:33:12.610Z,12.18
2023-02-21T16:35:42.252Z,12.23
2023-02-21T16:38:20.215Z,12.07
2023-02-21T16:40:50.161Z,11.80
2023-02-21T16:43:30.193Z,11.35
2023-02-21T16:46:00.460Z,13.43
2023-02-21T16:48:34.473Z,11.88
2023-02-21T16:51:06.435Z,12.05
2023-02-21T16:53:36.121Z,12.77
2023-02-21T16:56:05.830Z,10.88
2023-02-21T16:58:37.991Z,12.60
2023-02-21T17:01:17.372Z,12.35
2023-02-21T17:03:47.139Z,12.10
2023-02-21T17:06:24.534Z,11.77
2023-02-21T17:08:54.360Z,12.05
2023-02-21T17:11:24.146Z,11.07
2023-02-21T17:13:54.044Z,13.13
2023-02-21T17:16:23.962Z,12.10
2023-02-21T17:18:53.699Z,12.00
2023-02-21T17:21:23.407Z,12.30
2023-02-21T17:23:53.131Z,12.73
2023-02-21T17:26:23.749Z,12.38
2023-02-21T17:28:53.911Z,11.93
2023-02-21T17:31:23.579Z,12.32
2023-02-21T17:33:53.673Z,12.23
2023-02-21T17:36:24.333Z,12.18
2023-02-21T17:38:54.113Z,12.75
2023-02-21T17:41:23.985Z,11.25
2023-02-21T17:43:53.883Z,11.90
2023-02-21T17:46:23.661Z,13.15
2023-02-21T17:48:53.436Z,12.27
2023-02-21T17:51:25.008Z,11.95
2023-02-21T17:53:54.613Z,12.43
2023-02-21T17:56:25.979Z,12.10
2023-02-21T17:58:56.658Z,13.00
2023-02-21T18:01:26.940Z,12.63
2023-02-21T18:03:56.585Z,12.60
2023-02-21T18:06:26.210Z,12.40
2023-02-21T18:08:56.459Z,13.48
2023-02-21T18:11:26.464Z,11.98
2023-02-21T18:13:57.758Z,11.95
2023-02-21T18:16:27.590Z,11.95
2023-02-21T18:18:57.233Z,13.18
2023-02-21T18:21:28.962Z,12.60
2023-02-21T18:23:58.611Z,12.50
2023-02-21T18:26:28.267Z,12.05
2023-02-21T18:28:57.963Z,13.98
2023-02-21T18:31:27.645Z,13.25
2023-02-21T18:33:57.250Z,12.82
2023-02-21T18:36:28.030Z,11.65
2023-02-21T18:38:57.666Z,12.57
2023-02-21T18:41:27.486Z,13.30
2023-02-21T18:43:57.098Z,13.15
2023-02-21T18:46:26.779Z,12.73
2023-02-21T18:48:56.492Z,13.07
2023-02-21T18:51:26.176Z,13.13
2023-02-21T18:53:56.229Z,13.52
2023-02-21T18:56:26.041Z,12.23
2023-02-21T18:58:56.027Z,11.15
2023-02-21T19:01:28.384Z,13.60
2023-02-21T19:03:58.110Z,12.70
2023-02-21T19:06:27.797Z,12.35
2023-02-21T19:08:57.439Z,13.48
2023-02-21T19:11:27.094Z,12.88
2023-02-21T19:13:56.651Z,12.73
2023-02-21T19:16:27.247Z,12.55
2023-02-21T19:19:00.454Z,13.50
2023-02-21T19:21:30.235Z,11.68
2023-02-21T19:24:00.379Z,11.95
2023-02-21T19:26:31.261Z,12.88
2023-02-21T19:29:00.988Z,12.82
2023-02-21T19:31:30.699Z,13.10
2023-02-21T19:34:00.465Z,12.77
2023-02-21T19:36:30.053Z,12.77
2023-02-21T19:38:59.675Z,13.13
2023-02-21T19:41:29.673Z,12.95
2023-02-21T19:43:59.298Z,12.32
2023-02-21T19:46:29.572Z,12.48
2023-02-21T19:48:59.228Z,12.13
2023-02-21T19:51:30.339Z,11.93
2023-02-21T19:54:00.456Z,12.07
2023-02-21T19:56:30.495Z,13.30
2023-02-21T19:59:01.160Z,12.18
2023-02-21T20:01:31.770Z,9.77
2023-02-21T20:04:02.390Z,9.43
2023-02-21T20:06:36.702Z,8.85
2023-02-21T20:11:41.653Z,8.32
2023-02-21T20:14:11.859Z,7.32
2023-02-21T20:16:42.757Z,7.07
2023-02-21T20:19:13.711Z,6.70
2023-02-21T20:21:43.657Z,6.60
2023-02-21T20:24:13.500Z,6.28
2023-02-21T20:26:43.140Z,7.20
2023-02-21T20:29:12.757Z,6.68
2023-02-21T20:31:42.461Z,6.20
2023-02-21T20:34:12.218Z,6.30
2023-02-21T20:36:44.034Z,6.07
2023-02-21T20:39:27.625Z,5.68
2023-02-21T20:42:01.946Z,5.50
2023-02-21T20:47:05.529Z,4.82
2023-02-21T20:49:36.748Z,4.88
2023-02-21T20:52:06.520Z,5.25
2023-02-21T20:54:36.209Z,4.78
2023-02-21T20:57:05.915Z,5.03
2023-02-21T20:59:37.762Z,4.82
2023-02-21T21:02:07.885Z,4.85
2023-02-21T21:04:39.370Z,5.03
2023-02-21T21:07:17.702Z,5.03
2023-02-21T21:09:47.959Z,5.05
2023-02-21T21:12:19.657Z,5.10
2023-02-21T21:14:51.117Z,4.47
2023-02-21T21:17:21.441Z,4.97
2023-02-21T21:19:51.747Z,5.53
2023-02-21T21:22:23.332Z,4.90
2023-02-21T21:24:53.576Z,5.05
2023-02-21T21:27:23.712Z,6.13
2023-02-21T21:29:55.254Z,5.15
2023-02-21T21:32:25.459Z,5.32
2023-02-21T21:34:56.966Z,5.65
2023-02-21T21:37:29.267Z,4.93
2023-02-21T21:39:59.011Z,4.60
2023-02-21T21:42:30.001Z,4.85
2023-02-21T21:44:59.619Z,4.70
2023-02-21T21:47:33.487Z,4.95
2023-02-21T21:50:05.789Z,5.47
2023-02-21T21:52:35.454Z,5.63
2023-02-21T21:55:05.270Z,5.25
2023-02-21T21:57:34.945Z,5.57
2023-02-21T22:00:15.057Z,4.80
2023-02-21T22:02:48.834Z,4.85
2023-02-21T22:05:18.877Z,5.65
2023-02-21T22:07:49.509Z,4.50
2023-02-21T22:10:20.612Z,4.07
2023-02-21T22:12:53.672Z,5.05
2023-02-21T22:15:25.120Z,4.57
2023-02-21T22:17:54.951Z,4.97
2023-02-21T22:20:32.540Z,4.90
2023-02-21T22:23:02.354Z,3.80
2023-02-21T22:25:33.549Z,4.95
2023-02-21T22:28:04.750Z,4.57
2023-02-21T22:30:34.508Z,4.72
2023-02-21T22:33:05.207Z,4.60
2023-02-21T22:35:34.890Z,5.65
2023-02-21T22:38:06.283Z,5.55
2023-02-21T22:40:38.949Z,6.05
2023-02-21T22:43:10.464Z,5.50
2023-02-21T22:45:40.426Z,6.03
2023-02-21T22:48:11.627Z,5.53
2023-02-21T22:50:41.364Z,5.38
2023-02-21T22:53:14.554Z,6.10
2023-02-21T22:55:45.475Z,6.35
2023-02-21T22:58:15.456Z,5.28
2023-02-21T23:00:45.103Z,6.13
2023-02-21T23:03:14.851Z,6.85
2023-02-21T23:05:53.960Z,6.38
2023-02-21T23:08:24.563Z,5.95
2023-02-21T23:10:54.209Z,6.60
2023-02-21T23:13:25.692Z,6.25
2023-02-21T23:15:56.728Z,5.55
2023-02-21T23:18:27.655Z,6.40
2023-02-21T23:20:58.564Z,5.90
2023-02-21T23:23:29.635Z,6.10
2023-02-21T23:26:01.130Z,6.25
2023-02-21T23:28:31.446Z,6.53
2023-02-21T23:31:01.073Z,6.78
2023-02-21T23:33:32.008Z,5.78
2023-02-21T23:36:01.734Z,6.97
2023-02-21T23:38:31.414Z,6.28
2023-02-21T23:41:03.394Z,6.32
2023-02-21T23:43:37.108Z,5.90
2023-02-21T23:46:08.442Z,6.25
2023-02-21T23:48:39.045Z,7.10
2023-02-21T23:51:09.675Z,6.22
2023-02-21T23:53:39.528Z,7.38
2023-02-21T23:56:09.659Z,5.97
2023-02-21T23:58:40.571Z,6.72
